sensor_id;sensor_type;location;lat;lon;timestamp;P1;durP1;ratioP1;P2;durP2;ratioP2
68825;SDS011;55841;53.392;10.086;2023-03-01T00:01:17;12.18;;;3.92;;
68825;SDS011;55841;53.392;10.086;2023-03-01T00:03:44;12.77;;;4.57;;
68825;SDS011;55841;53.392;10.086;2023-03-01T00:06:10;10.52;;;3.67;;
68825;SDS011;55841;53.392;10.086;2023-03-01T00:08:36;15.55;;;4.40;;
68825;SDS011;55841;53.392;10.086;2023-03-01T00:11:03;11.50;;;4.40;;
68825;SDS011;55841;53.392;10.086;2023-03-01T00:13:50;11.63;;;4.07;;
68825;SDS011;55841;53.392;10.086;2023-03-01T00:16:19;12.52;;;4.45;;
68825;SDS011;55841;53.392;10.086;2023-03-01T00:18:49;9.18;;;3.45;;
68825;SDS011;55841;53.392;10.086;2023-03-01T00:21:15;12.05;;;3.88;;
68825;SDS011;55841;53.392;10.086;2023-03-01T00:23:41;11.85;;;4.03;;
68825;SDS011;55841;53.392;10.086;2023-03-01T00:26:08;11.27;;;4.22;;
68825;SDS011;55841;53.392;10.086;2023-03-01T00:28:37;12.20;;;4.20;;
68825;SDS011;55841;53.392;10.086;2023-03-01T00:31:06;10.45;;;3.05;;
68825;SDS011;55841;53.392;10.086;2023-03-01T00:33:34;10.18;;;3.28;;
68825;SDS011;55841;53.392;10.086;2023-03-01T00:35:59;9.65;;;3.40;;
68825;SDS011;55841;53.392;10.086;2023-03-01T00:38:25;10.45;;;3.53;;
68825;SDS011;55841;53.392;10.086;2023-03-01T00:40:52;9.57;;;3.78;;
68825;SDS011;55841;53.392;10.086;2023-03-01T00:43:17;10.73;;;3.90;;
68825;SDS011;55841;53.392;10.086;2023-03-01T00:45:43;9.40;;;3.70;;
68825;SDS011;55841;53.392;10.086;2023-03-01T00:48:09;10.32;;;3.63;;
68825;SDS011;55841;53.392;10.086;2023-03-01T00:50:34;11.68;;;3.40;;
68825;SDS011;55841;53.392;10.086;2023-03-01T00:53:00;13.38;;;3.50;;
68825;SDS011;55841;53.392;10.086;2023-03-01T00:55:26;9.32;;;2.92;;
68825;SDS011;55841;53.392;10.086;2023-03-01T00:57:51;11.07;;;3.78;;
68825;SDS011;55841;53.392;10.086;2023-03-01T01:00:17;10.77;;;3.70;;
68825;SDS011;55841;53.392;10.086;2023-03-01T01:02:43;9.77;;;3.58;;
68825;SDS011;55841;53.392;10.086;2023-03-01T01:05:09;11.30;;;3.88;;
68825;SDS011;55841;53.392;10.086;2023-03-01T01:07:35;10.85;;;3.83;;
68825;SDS011;55841;53.392;10.086;2023-03-01T01:10:01;11.15;;;3.28;;
68825;SDS011;55841;53.392;10.086;2023-03-01T01:12:27;9.45;;;3.45;;
68825;SDS011;55841;53.392;10.086;2023-03-01T01:14:53;11.52;;;4.05;;
68825;SDS011;55841;53.392;10.086;2023-03-01T01:17:18;10.45;;;3.55;;
68825;SDS011;55841;53.392;10.086;2023-03-01T01:19:44;9.65;;;3.33;;
68825;SDS011;55841;53.392;10.086;2023-03-01T01:22:09;11.63;;;3.97;;
68825;SDS011;55841;53.392;10.086;2023-03-01T01:24:35;9.68;;;3.47;;
68825;SDS011;55841;53.392;10.086;2023-03-01T01:27:01;10.65;;;3.70;;
68825;SDS011;55841;53.392;10.086;2023-03-01T01:29:27;10.77;;;3.20;;
68825;SDS011;55841;53.392;10.086;2023-03-01T01:31:52;11.45;;;3.65;;
68825;SDS011;55841;53.392;10.086;2023-03-01T01:34:19;10.23;;;3.83;;
68825;SDS011;55841;53.392;10.086;2023-03-01T01:36:49;8.98;;;3.45;;
68825;SDS011;55841;53.392;10.086;2023-03-01T01:39:15;10.48;;;3.70;;
68825;SDS011;55841;53.392;10.086;2023-03-01T01:41:41;10.23;;;3.33;;
68825;SDS011;55841;53.392;10.086;2023-03-01T01:46:41;10.77;;;3.85;;
68825;SDS011;55841;53.392;10.086;2023-03-01T01:49:17;10.77;;;3.78;;
68825;SDS011;55841;53.392;10.086;2023-03-01T01:51:45;10.18;;;3.50;;
68825;SDS011;55841;53.392;10.086;2023-03-01T01:54:17;10.88;;;3.78;;
68825;SDS011;55841;53.392;10.086;2023-03-01T01:56:47;9.57;;;3.60;;
68825;SDS011;55841;53.392;10.086;2023-03-01T01:59:15;11.65;;;3.75;;
68825;SDS011;55841;53.392;10.086;2023-03-01T02:01:41;10.07;;;3.60;;
68825;SDS011;55841;53.392;10.086;2023-03-01T02:04:08;10.70;;;3.40;;
68825;SDS011;55841;53.392;10.086;2023-03-01T02:06:36;10.77;;;3.40;;
68825;SDS011;55841;53.392;10.086;2023-03-01T02:09:08;9.68;;;3.20;;
68825;SDS011;55841;53.392;10.086;2023-03-01T02:11:38;10.02;;;3.50;;
68825;SDS011;55841;53.392;10.086;2023-03-01T02:14:04;10.98;;;3.70;;
68825;SDS011;55841;53.392;10.086;2023-03-01T02:16:30;10.60;;;3.65;;
68825;SDS011;55841;53.392;10.086;2023-03-01T02:18:56;10.52;;;3.75;;
68825;SDS011;55841;53.392;10.086;2023-03-01T02:27:05;13.85;;;3.83;;
68825;SDS011;55841;53.392;10.086;2023-03-01T02:29:31;10.93;;;3.63;;
68825;SDS011;55841;53.392;10.086;2023-03-01T02:31:58;9.00;;;3.47;;
68825;SDS011;55841;53.392;10.086;2023-03-01T02:34:26;10.25;;;3.90;;
68825;SDS011;55841;53.392;10.086;2023-03-01T02:36:53;11.50;;;3.50;;
68825;SDS011;55841;53.392;10.086;2023-03-01T02:39:39;9.32;;;2.92;;
68825;SDS011;55841;53.392;10.086;2023-03-01T02:42:10;10.05;;;3.53;;
68825;SDS011;55841;53.392;10.086;2023-03-01T02:44:38;12.32;;;4.18;;
68825;SDS011;55841;53.392;10.086;2023-03-01T02:47:03;10.23;;;3.50;;
68825;SDS011;55841;53.392;10.086;2023-03-01T02:49:30;9.52;;;4.28;;
68825;SDS011;55841;53.392;10.086;2023-03-01T02:54:40;10.32;;;3.40;;
68825;SDS011;55841;53.392;10.086;2023-03-01T02:57:16;10.80;;;3.60;;
68825;SDS011;55841;53.392;10.086;2023-03-01T02:59:42;8.02;;;3.15;;
68825;SDS011;55841;53.392;10.086;2023-03-01T03:02:18;9.32;;;3.30;;
68825;SDS011;55841;53.392;10.086;2023-03-01T03:04:51;8.90;;;3.13;;
68825;SDS011;55841;53.392;10.086;2023-03-01T03:07:17;10.45;;;3.30;;
68825;SDS011;55841;53.392;10.086;2023-03-01T03:09:42;10.50;;;3.33;;
68825;SDS011;55841;53.392;10.086;2023-03-01T03:12:08;9.80;;;3.17;;
68825;SDS011;55841;53.392;10.086;2023-03-01T03:14:33;9.70;;;3.25;;
68825;SDS011;55841;53.392;10.086;2023-03-01T03:16:59;10.35;;;3.30;;
68825;SDS011;55841;53.392;10.086;2023-03-01T03:19:24;8.68;;;3.20;;
68825;SDS011;55841;53.392;10.086;2023-03-01T03:21:50;6.15;;;2.75;;
68825;SDS011;55841;53.392;10.086;2023-03-01T03:24:15;8.52;;;2.95;;
68825;SDS011;55841;53.392;10.086;2023-03-01T03:26:41;9.73;;;3.20;;
68825;SDS011;55841;53.392;10.086;2023-03-01T03:29:06;7.47;;;2.63;;
68825;SDS011;55841;53.392;10.086;2023-03-01T03:31:32;9.27;;;3.00;;
68825;SDS011;55841;53.392;10.086;2023-03-01T03:33:58;7.82;;;2.47;;
68825;SDS011;55841;53.392;10.086;2023-03-01T03:36:24;9.00;;;2.70;;
68825;SDS011;55841;53.392;10.086;2023-03-01T03:38:49;9.45;;;2.67;;
68825;SDS011;55841;53.392;10.086;2023-03-01T03:41:15;8.88;;;2.83;;
68825;SDS011;55841;53.392;10.086;2023-03-01T03:43:42;7.78;;;2.70;;
68825;SDS011;55841;53.392;10.086;2023-03-01T03:46:08;7.28;;;2.40;;
68825;SDS011;55841;53.392;10.086;2023-03-01T03:48:35;7.45;;;2.70;;
68825;SDS011;55841;53.392;10.086;2023-03-01T03:51:02;8.80;;;2.50;;
68825;SDS011;55841;53.392;10.086;2023-03-01T03:53:29;8.68;;;2.95;;
68825;SDS011;55841;53.392;10.086;2023-03-01T03:55:54;8.77;;;2.67;;
68825;SDS011;55841;53.392;10.086;2023-03-01T03:58:20;7.82;;;2.70;;
68825;SDS011;55841;53.392;10.086;2023-03-01T04:00:48;8.27;;;2.78;;
68825;SDS011;55841;53.392;10.086;2023-03-01T04:03:16;8.07;;;2.63;;
68825;SDS011;55841;53.392;10.086;2023-03-01T04:05:44;7.10;;;2.40;;
68825;SDS011;55841;53.392;10.086;2023-03-01T04:08:10;6.25;;;2.03;;
68825;SDS011;55841;53.392;10.086;2023-03-01T04:10:37;7.13;;;2.55;;
68825;SDS011;55841;53.392;10.086;2023-03-01T04:13:05;9.38;;;2.85;;
68825;SDS011;55841;53.392;10.086;2023-03-01T04:15:32;7.15;;;2.50;;
68825;SDS011;55841;53.392;10.086;2023-03-01T04:17:59;8.85;;;2.60;;
68825;SDS011;55841;53.392;10.086;2023-03-01T04:20:26;10.18;;;2.47;;
68825;SDS011;55841;53.392;10.086;2023-03-01T04:23:02;6.00;;;2.10;;
68825;SDS011;55841;53.392;10.086;2023-03-01T04:25:33;7.78;;;2.47;;
68825;SDS011;55841;53.392;10.086;2023-03-01T04:27:58;7.32;;;2.40;;
68825;SDS011;55841;53.392;10.086;2023-03-01T04:30:24;7.75;;;2.17;;
68825;SDS011;55841;53.392;10.086;2023-03-01T04:32:49;10.93;;;2.65;;
68825;SDS011;55841;53.392;10.086;2023-03-01T04:35:15;8.77;;;2.88;;
68825;SDS011;55841;53.392;10.086;2023-03-01T04:37:40;7.55;;;3.15;;
68825;SDS011;55841;53.392;10.086;2023-03-01T04:40:06;7.47;;;2.38;;
68825;SDS011;55841;53.392;10.086;2023-03-01T04:42:32;8.40;;;2.53;;
68825;SDS011;55841;53.392;10.086;2023-03-01T04:44:58;7.13;;;2.42;;
68825;SDS011;55841;53.392;10.086;2023-03-01T04:47:23;7.43;;;2.30;;
68825;SDS011;55841;53.392;10.086;2023-03-01T04:49:49;6.88;;;2.28;;
68825;SDS011;55841;53.392;10.086;2023-03-01T04:52:14;9.20;;;2.40;;
68825;SDS011;55841;53.392;10.086;2023-03-01T04:54:40;8.48;;;2.28;;
68825;SDS011;55841;53.392;10.086;2023-03-01T04:57:05;7.35;;;2.03;;
68825;SDS011;55841;53.392;10.086;2023-03-01T04:59:31;8.65;;;2.35;;
68825;SDS011;55841;53.392;10.086;2023-03-01T05:01:56;6.35;;;2.10;;
68825;SDS011;55841;53.392;10.086;2023-03-01T05:04:22;8.50;;;2.60;;
68825;SDS011;55841;53.392;10.086;2023-03-01T05:06:48;5.25;;;2.00;;
68825;SDS011;55841;53.392;10.086;2023-03-01T05:09:14;5.57;;;2.00;;
68825;SDS011;55841;53.392;10.086;2023-03-01T05:11:40;4.68;;;2.08;;
68825;SDS011;55841;53.392;10.086;2023-03-01T05:14:06;6.97;;;2.20;;
68825;SDS011;55841;53.392;10.086;2023-03-01T05:16:32;7.25;;;2.30;;
68825;SDS011;55841;53.392;10.086;2023-03-01T05:18:58;6.07;;;2.13;;
68825;SDS011;55841;53.392;10.086;2023-03-01T05:21:24;8.13;;;2.25;;
68825;SDS011;55841;53.392;10.086;2023-03-01T05:23:50;7.63;;;2.50;;
68825;SDS011;55841;53.392;10.086;2023-03-01T05:26:17;7.57;;;2.10;;
68825;SDS011;55841;53.392;10.086;2023-03-01T05:28:44;6.40;;;2.20;;
68825;SDS011;55841;53.392;10.086;2023-03-01T05:31:10;6.05;;;1.98;;
68825;SDS011;55841;53.392;10.086;2023-03-01T05:33:39;8.07;;;2.45;;
68825;SDS011;55841;53.392;10.086;2023-03-01T05:36:06;6.90;;;2.15;;
68825;SDS011;55841;53.392;10.086;2023-03-01T05:38:32;7.35;;;2.78;;
68825;SDS011;55841;53.392;10.086;2023-03-01T05:40:58;9.48;;;2.60;;
68825;SDS011;55841;53.392;10.086;2023-03-01T05:43:24;5.70;;;2.20;;
68825;SDS011;55841;53.392;10.086;2023-03-01T05:45:50;7.65;;;2.17;;
68825;SDS011;55841;53.392;10.086;2023-03-01T05:48:16;5.25;;;2.20;;
68825;SDS011;55841;53.392;10.086;2023-03-01T05:50:43;8.00;;;2.35;;
68825;SDS011;55841;53.392;10.086;2023-03-01T05:53:10;7.88;;;2.60;;
68825;SDS011;55841;53.392;10.086;2023-03-01T05:55:39;8.82;;;2.90;;
68825;SDS011;55841;53.392;10.086;2023-03-01T05:58:06;8.95;;;2.80;;
68825;SDS011;55841;53.392;10.086;2023-03-01T06:00:34;7.85;;;2.15;;
68825;SDS011;55841;53.392;10.086;2023-03-01T06:03:00;8.40;;;2.47;;
68825;SDS011;55841;53.392;10.086;2023-03-01T06:05:26;8.70;;;2.33;;
68825;SDS011;55841;53.392;10.086;2023-03-01T06:07:52;6.65;;;2.03;;
68825;SDS011;55841;53.392;10.086;2023-03-01T06:10:18;8.20;;;2.40;;
68825;SDS011;55841;53.392;10.086;2023-03-01T06:12:45;7.07;;;2.10;;
68825;SDS011;55841;53.392;10.086;2023-03-01T06:15:12;5.90;;;2.35;;
68825;SDS011;55841;53.392;10.086;2023-03-01T06:29:15;7.25;;;2.10;;
68825;SDS011;55841;53.392;10.086;2023-03-01T06:31:41;7.43;;;2.20;;
68825;SDS011;55841;53.392;10.086;2023-03-01T06:34:06;10.40;;;4.85;;
68825;SDS011;55841;53.392;10.086;2023-03-01T06:36:32;8.90;;;2.33;;
68825;SDS011;55841;53.392;10.086;2023-03-01T06:38:57;6.53;;;2.22;;
68825;SDS011;55841;53.392;10.086;2023-03-01T06:41:23;12.10;;;2.80;;
68825;SDS011;55841;53.392;10.086;2023-03-01T06:43:48;6.32;;;2.60;;
68825;SDS011;55841;53.392;10.086;2023-03-01T06:46:14;8.27;;;2.53;;
68825;SDS011;55841;53.392;10.086;2023-03-01T06:48:39;6.15;;;2.30;;
68825;SDS011;55841;53.392;10.086;2023-03-01T06:51:05;10.00;;;2.63;;
68825;SDS011;55841;53.392;10.086;2023-03-01T06:53:30;6.68;;;2.10;;
68825;SDS011;55841;53.392;10.086;2023-03-01T06:55:56;10.13;;;2.80;;
68825;SDS011;55841;53.392;10.086;2023-03-01T06:58:22;7.03;;;2.28;;
68825;SDS011;55841;53.392;10.086;2023-03-01T07:00:49;9.65;;;2.47;;
68825;SDS011;55841;53.392;10.086;2023-03-01T07:03:15;10.00;;;2.80;;
68825;SDS011;55841;53.392;10.086;2023-03-01T07:05:40;7.57;;;2.30;;
68825;SDS011;55841;53.392;10.086;2023-03-01T07:08:06;7.93;;;2.22;;
68825;SDS011;55841;53.392;10.086;2023-03-01T07:10:31;7.13;;;2.58;;
68825;SDS011;55841;53.392;10.086;2023-03-01T07:12:57;9.55;;;2.75;;
68825;SDS011;55841;53.392;10.086;2023-03-01T07:15:23;7.07;;;2.40;;
68825;SDS011;55841;53.392;10.086;2023-03-01T07:17:49;10.98;;;2.60;;
68825;SDS011;55841;53.392;10.086;2023-03-01T07:20:17;9.48;;;2.55;;
68825;SDS011;55841;53.392;10.086;2023-03-01T07:22:43;9.90;;;2.88;;
68825;SDS011;55841;53.392;10.086;2023-03-01T07:25:09;8.10;;;2.85;;
68825;SDS011;55841;53.392;10.086;2023-03-01T07:27:35;10.15;;;2.78;;
68825;SDS011;55841;53.392;10.086;2023-03-01T07:30:01;10.45;;;2.75;;
68825;SDS011;55841;53.392;10.086;2023-03-01T07:32:27;15.32;;;5.30;;
68825;SDS011;55841;53.392;10.086;2023-03-01T07:34:52;32.10;;;14.52;;
68825;SDS011;55841;53.392;10.086;2023-03-01T07:37:18;21.45;;;9.95;;
68825;SDS011;55841;53.392;10.086;2023-03-01T07:39:43;15.73;;;4.70;;
68825;SDS011;55841;53.392;10.086;2023-03-01T07:42:09;18.48;;;8.23;;
68825;SDS011;55841;53.392;10.086;2023-03-01T07:44:34;21.08;;;6.95;;
68825;SDS011;55841;53.392;10.086;2023-03-01T07:47:00;12.88;;;5.28;;
68825;SDS011;55841;53.392;10.086;2023-03-01T07:49:25;9.35;;;3.38;;
68825;SDS011;55841;53.392;10.086;2023-03-01T07:51:51;9.85;;;2.63;;
68825;SDS011;55841;53.392;10.086;2023-03-01T07:54:17;12.68;;;2.78;;
68825;SDS011;55841;53.392;10.086;2023-03-01T07:56:42;8.13;;;2.70;;
68825;SDS011;55841;53.392;10.086;2023-03-01T07:59:08;6.18;;;2.00;;
68825;SDS011;55841;53.392;10.086;2023-03-01T08:01:33;8.73;;;2.60;;
68825;SDS011;55841;53.392;10.086;2023-03-01T08:03:59;8.77;;;2.58;;
68825;SDS011;55841;53.392;10.086;2023-03-01T08:06:25;10.13;;;3.08;;
68825;SDS011;55841;53.392;10.086;2023-03-01T08:08:50;9.18;;;2.83;;
68825;SDS011;55841;53.392;10.086;2023-03-01T08:11:16;11.27;;;2.67;;
68825;SDS011;55841;53.392;10.086;2023-03-01T08:13:42;8.93;;;2.60;;
68825;SDS011;55841;53.392;10.086;2023-03-01T08:16:11;6.95;;;2.30;;
68825;SDS011;55841;53.392;10.086;2023-03-01T08:18:38;10.18;;;2.85;;
68825;SDS011;55841;53.392;10.086;2023-03-01T08:21:04;9.70;;;2.90;;
68825;SDS011;55841;53.392;10.086;2023-03-01T08:23:34;9.23;;;2.78;;
68825;SDS011;55841;53.392;10.086;2023-03-01T08:26:19;7.45;;;2.70;;
68825;SDS011;55841;53.392;10.086;2023-03-01T08:28:46;10.32;;;2.65;;
68825;SDS011;55841;53.392;10.086;2023-03-01T08:31:34;20.27;;;6.50;;
68825;SDS011;55841;53.392;10.086;2023-03-01T08:34:03;11.25;;;2.70;;
68825;SDS011;55841;53.392;10.086;2023-03-01T08:36:32;7.80;;;2.20;;
68825;SDS011;55841;53.392;10.086;2023-03-01T08:39:00;10.32;;;2.83;;
68825;SDS011;55841;53.392;10.086;2023-03-01T08:41:26;10.40;;;2.70;;
68825;SDS011;55841;53.392;10.086;2023-03-01T08:43:51;9.18;;;2.80;;
68825;SDS011;55841;53.392;10.086;2023-03-01T08:46:17;7.90;;;2.90;;
68825;SDS011;55841;53.392;10.086;2023-03-01T08:48:43;8.80;;;2.55;;
68825;SDS011;55841;53.392;10.086;2023-03-01T08:51:16;9.45;;;3.05;;
68825;SDS011;55841;53.392;10.086;2023-03-01T08:53:42;12.00;;;3.10;;
68825;SDS011;55841;53.392;10.086;2023-03-01T08:56:08;10.48;;;3.15;;
68825;SDS011;55841;53.392;10.086;2023-03-01T08:58:35;7.70;;;2.67;;
68825;SDS011;55841;53.392;10.086;2023-03-01T09:01:00;9.82;;;3.10;;
68825;SDS011;55841;53.392;10.086;2023-03-01T09:03:31;10.82;;;2.90;;
68825;SDS011;55841;53.392;10.086;2023-03-01T09:05:59;7.85;;;2.72;;
68825;SDS011;55841;53.392;10.086;2023-03-01T09:08:25;9.05;;;2.67;;
68825;SDS011;55841;53.392;10.086;2023-03-01T09:10:51;9.98;;;3.45;;
68825;SDS011;55841;53.392;10.086;2023-03-01T09:13:16;10.00;;;3.40;;
68825;SDS011;55841;53.392;10.086;2023-03-01T09:15:42;9.95;;;3.55;;
68825;SDS011;55841;53.392;10.086;2023-03-01T09:18:07;9.05;;;3.00;;
68825;SDS011;55841;53.392;10.086;2023-03-01T09:20:33;11.25;;;3.85;;
68825;SDS011;55841;53.392;10.086;2023-03-01T09:22:58;9.93;;;3.50;;
68825;SDS011;55841;53.392;10.086;2023-03-01T09:25:24;10.20;;;3.30;;
68825;SDS011;55841;53.392;10.086;2023-03-01T09:27:53;10.50;;;3.60;;
68825;SDS011;55841;53.392;10.086;2023-03-01T09:30:19;10.68;;;3.63;;
68825;SDS011;55841;53.392;10.086;2023-03-01T09:32:45;11.90;;;3.45;;
68825;SDS011;55841;53.392;10.086;2023-03-01T09:35:11;13.60;;;4.97;;
68825;SDS011;55841;53.392;10.086;2023-03-01T09:37:37;11.23;;;3.92;;
68825;SDS011;55841;53.392;10.086;2023-03-01T09:40:03;10.10;;;3.63;;
68825;SDS011;55841;53.392;10.086;2023-03-01T09:42:34;12.57;;;3.80;;
68825;SDS011;55841;53.392;10.086;2023-03-01T09:45:11;11.35;;;4.03;;
68825;SDS011;55841;53.392;10.086;2023-03-01T09:47:48;10.48;;;3.60;;
68825;SDS011;55841;53.392;10.086;2023-03-01T09:50:15;10.90;;;3.53;;
68825;SDS011;55841;53.392;10.086;2023-03-01T09:52:43;13.27;;;4.55;;
68825;SDS011;55841;53.392;10.086;2023-03-01T09:55:16;10.52;;;4.40;;
68825;SDS011;55841;53.392;10.086;2023-03-01T09:57:55;11.90;;;4.80;;
68825;SDS011;55841;53.392;10.086;2023-03-01T10:02:57;13.02;;;5.00;;
68825;SDS011;55841;53.392;10.086;2023-03-01T10:10:39;12.68;;;4.90;;
68825;SDS011;55841;53.392;10.086;2023-03-01T10:13:17;12.32;;;4.75;;
68825;SDS011;55841;53.392;10.086;2023-03-01T10:15:48;14.30;;;5.00;;
68825;SDS011;55841;53.392;10.086;2023-03-01T10:18:22;11.05;;;4.65;;
68825;SDS011;55841;53.392;10.086;2023-03-01T10:23:25;12.02;;;4.80;;
68825;SDS011;55841;53.392;10.086;2023-03-01T10:28:42;19.50;;;5.65;;
68825;SDS011;55841;53.392;10.086;2023-03-01T10:31:18;14.90;;;5.20;;
68825;SDS011;55841;53.392;10.086;2023-03-01T10:33:49;14.07;;;5.65;;
68825;SDS011;55841;53.392;10.086;2023-03-01T10:36:15;15.90;;;5.68;;
68825;SDS011;55841;53.392;10.086;2023-03-01T10:38:56;13.93;;;5.20;;
68825;SDS011;55841;53.392;10.086;2023-03-01T10:41:23;13.90;;;5.30;;
68825;SDS011;55841;53.392;10.086;2023-03-01T10:43:54;13.20;;;5.90;;
68825;SDS011;55841;53.392;10.086;2023-03-01T10:46:39;15.68;;;6.22;;
68825;SDS011;55841;53.392;10.086;2023-03-01T10:49:16;13.63;;;6.28;;
68825;SDS011;55841;53.392;10.086;2023-03-01T10:51:44;15.52;;;8.07;;
68825;SDS011;55841;53.392;10.086;2023-03-01T10:56:51;17.27;;;6.50;;
68825;SDS011;55841;53.392;10.086;2023-03-01T10:59:36;16.77;;;6.50;;
68825;SDS011;55841;53.392;10.086;2023-03-01T11:02:08;13.70;;;5.75;;
68825;SDS011;55841;53.392;10.086;2023-03-01T11:07:24;19.40;;;6.90;;
68825;SDS011;55841;53.392;10.086;2023-03-01T11:09:49;16.67;;;6.28;;
68825;SDS011;55841;53.392;10.086;2023-03-01T11:12:15;20.17;;;6.93;;
68825;SDS011;55841;53.392;10.086;2023-03-01T11:14:48;16.83;;;6.30;;
68825;SDS011;55841;53.392;10.086;2023-03-01T11:17:30;17.02;;;7.15;;
68825;SDS011;55841;53.392;10.086;2023-03-01T11:20:00;16.40;;;7.10;;
68825;SDS011;55841;53.392;10.086;2023-03-01T11:22:37;22.73;;;7.82;;
68825;SDS011;55841;53.392;10.086;2023-03-01T11:25:12;19.83;;;7.50;;
68825;SDS011;55841;53.392;10.086;2023-03-01T11:27:40;23.38;;;7.43;;
68825;SDS011;55841;53.392;10.086;2023-03-01T11:32:47;20.55;;;7.72;;
68825;SDS011;55841;53.392;10.086;2023-03-01T11:35:26;19.73;;;7.32;;
68825;SDS011;55841;53.392;10.086;2023-03-01T11:40:33;16.70;;;7.18;;
68825;SDS011;55841;53.392;10.086;2023-03-01T11:43:14;17.30;;;7.43;;
68825;SDS011;55841;53.392;10.086;2023-03-01T12:22:21;15.90;;;6.60;;
68825;SDS011;55841;53.392;10.086;2023-03-01T12:27:45;18.95;;;7.25;;
68825;SDS011;55841;53.392;10.086;2023-03-01T12:39:08;15.02;;;6.88;;
68825;SDS011;55841;53.392;10.086;2023-03-01T12:47:58;14.85;;;6.32;;
68825;SDS011;55841;53.392;10.086;2023-03-01T12:50:48;14.32;;;6.50;;
68825;SDS011;55841;53.392;10.086;2023-03-01T12:55:50;13.52;;;6.13;;
68825;SDS011;55841;53.392;10.086;2023-03-01T13:03:38;14.93;;;6.28;;
68825;SDS011;55841;53.392;10.086;2023-03-01T13:06:32;14.25;;;6.18;;
68825;SDS011;55841;53.392;10.086;2023-03-01T13:08:59;14.52;;;6.35;;
68825;SDS011;55841;53.392;10.086;2023-03-01T13:11:31;15.20;;;6.95;;
68825;SDS011;55841;53.392;10.086;2023-03-01T13:16:44;13.90;;;5.78;;
68825;SDS011;55841;53.392;10.086;2023-03-01T13:19:14;13.60;;;6.10;;
68825;SDS011;55841;53.392;10.086;2023-03-01T13:21:42;14.20;;;7.20;;
68825;SDS011;55841;53.392;10.086;2023-03-01T13:24:28;14.57;;;6.35;;
68825;SDS011;55841;53.392;10.086;2023-03-01T13:29:53;13.80;;;6.15;;
68825;SDS011;55841;53.392;10.086;2023-03-01T13:32:23;13.25;;;6.20;;
68825;SDS011;55841;53.392;10.086;2023-03-01T13:34:50;11.25;;;5.05;;
68825;SDS011;55841;53.392;10.086;2023-03-01T13:37:20;14.32;;;5.95;;
68825;SDS011;55841;53.392;10.086;2023-03-01T13:39:54;14.15;;;5.78;;
68825;SDS011;55841;53.392;10.086;2023-03-01T13:42:40;14.35;;;5.60;;
68825;SDS011;55841;53.392;10.086;2023-03-01T13:45:14;15.45;;;6.85;;
68825;SDS011;55841;53.392;10.086;2023-03-01T13:47:46;14.45;;;5.65;;
68825;SDS011;55841;53.392;10.086;2023-03-01T13:50:21;15.52;;;5.85;;
68825;SDS011;55841;53.392;10.086;2023-03-01T13:52:53;12.05;;;5.18;;
68825;SDS011;55841;53.392;10.086;2023-03-01T13:55:23;15.45;;;5.78;;
68825;SDS011;55841;53.392;10.086;2023-03-01T13:58:03;14.18;;;5.55;;
68825;SDS011;55841;53.392;10.086;2023-03-01T14:00:39;16.60;;;6.18;;
68825;SDS011;55841;53.392;10.086;2023-03-01T14:03:16;14.95;;;5.85;;
68825;SDS011;55841;53.392;10.086;2023-03-01T14:05:44;16.73;;;6.57;;
68825;SDS011;55841;53.392;10.086;2023-03-01T14:08:28;13.90;;;5.30;;
68825;SDS011;55841;53.392;10.086;2023-03-01T14:13:51;14.77;;;5.30;;
68825;SDS011;55841;53.392;10.086;2023-03-01T14:16:44;14.15;;;5.82;;
68825;SDS011;55841;53.392;10.086;2023-03-01T14:19:21;14.73;;;6.43;;
68825;SDS011;55841;53.392;10.086;2023-03-01T14:21:49;14.35;;;5.18;;
68825;SDS011;55841;53.392;10.086;2023-03-01T14:24:24;15.48;;;5.65;;
68825;SDS011;55841;53.392;10.086;2023-03-01T14:26:50;12.30;;;5.22;;
68825;SDS011;55841;53.392;10.086;2023-03-01T14:29:25;13.18;;;5.18;;
68825;SDS011;55841;53.392;10.086;2023-03-01T14:32:15;14.65;;;5.32;;
68825;SDS011;55841;53.392;10.086;2023-03-01T14:34:44;14.27;;;5.55;;
68825;SDS011;55841;53.392;10.086;2023-03-01T14:37:22;13.07;;;5.65;;
68825;SDS011;55841;53.392;10.086;2023-03-01T14:39:51;14.60;;;5.30;;
68825;SDS011;55841;53.392;10.086;2023-03-01T14:42:17;13.30;;;5.47;;
68825;SDS011;55841;53.392;10.086;2023-03-01T14:44:46;12.73;;;5.75;;
68825;SDS011;55841;53.392;10.086;2023-03-01T14:47:25;12.82;;;5.88;;
68825;SDS011;55841;53.392;10.086;2023-03-01T14:49:56;13.63;;;5.30;;
68825;SDS011;55841;53.392;10.086;2023-03-01T14:52:40;12.95;;;5.70;;
68825;SDS011;55841;53.392;10.086;2023-03-01T14:55:52;13.00;;;5.15;;
68825;SDS011;55841;53.392;10.086;2023-03-01T14:58:05;14.30;;;5.65;;
68825;SDS011;55841;53.392;10.086;2023-03-01T15:00:36;13.63;;;5.43;;
68825;SDS011;55841;53.392;10.086;2023-03-01T15:03:07;15.07;;;5.93;;
68825;SDS011;55841;53.392;10.086;2023-03-01T15:05:37;11.68;;;5.25;;
68825;SDS011;55841;53.392;10.086;2023-03-01T15:08:05;12.45;;;4.85;;
68825;SDS011;55841;53.392;10.086;2023-03-01T15:10:32;11.82;;;4.28;;
68825;SDS011;55841;53.392;10.086;2023-03-01T15:13:13;12.70;;;4.70;;
68825;SDS011;55841;53.392;10.086;2023-03-01T15:18:13;12.98;;;4.95;;
68825;SDS011;55841;53.392;10.086;2023-03-01T15:20:44;12.07;;;5.18;;
68825;SDS011;55841;53.392;10.086;2023-03-01T15:25:43;13.80;;;5.18;;
68825;SDS011;55841;53.392;10.086;2023-03-01T15:28:17;13.13;;;4.60;;
68825;SDS011;55841;53.392;10.086;2023-03-01T15:30:44;13.18;;;4.95;;
68825;SDS011;55841;53.392;10.086;2023-03-01T15:36:02;12.43;;;5.22;;
68825;SDS011;55841;53.392;10.086;2023-03-01T15:41:25;14.00;;;4.72;;
68825;SDS011;55841;53.392;10.086;2023-03-01T15:43:53;16.90;;;4.60;;
68825;SDS011;55841;53.392;10.086;2023-03-01T15:46:32;12.55;;;4.72;;
68825;SDS011;55841;53.392;10.086;2023-03-01T15:49:04;12.27;;;4.35;;
68825;SDS011;55841;53.392;10.086;2023-03-01T15:51:45;11.68;;;4.10;;
68825;SDS011;55841;53.392;10.086;2023-03-01T15:54:21;12.15;;;4.25;;
68825;SDS011;55841;53.392;10.086;2023-03-01T15:56:48;11.88;;;4.68;;
68825;SDS011;55841;53.392;10.086;2023-03-01T15:59:14;13.50;;;4.45;;
68825;SDS011;55841;53.392;10.086;2023-03-01T16:01:40;11.40;;;4.03;;
68825;SDS011;55841;53.392;10.086;2023-03-01T16:04:06;11.88;;;4.43;;
68825;SDS011;55841;53.392;10.086;2023-03-01T16:06:33;10.73;;;4.30;;
68825;SDS011;55841;53.392;10.086;2023-03-01T16:08:59;12.30;;;4.45;;
68825;SDS011;55841;53.392;10.086;2023-03-01T16:11:24;11.77;;;4.38;;
68825;SDS011;55841;53.392;10.086;2023-03-01T16:13:50;11.45;;;3.75;;
68825;SDS011;55841;53.392;10.086;2023-03-01T16:16:15;11.80;;;4.32;;
68825;SDS011;55841;53.392;10.086;2023-03-01T16:18:42;14.20;;;4.07;;
68825;SDS011;55841;53.392;10.086;2023-03-01T16:21:11;11.52;;;4.43;;
68825;SDS011;55841;53.392;10.086;2023-03-01T16:23:38;13.43;;;4.43;;
68825;SDS011;55841;53.392;10.086;2023-03-01T16:26:04;11.13;;;4.57;;
68825;SDS011;55841;53.392;10.086;2023-03-01T16:28:29;15.60;;;4.53;;
68825;SDS011;55841;53.392;10.086;2023-03-01T16:30:55;12.10;;;3.90;;
68825;SDS011;55841;53.392;10.086;2023-03-01T16:33:20;10.93;;;4.50;;
68825;SDS011;55841;53.392;10.086;2023-03-01T16:35:46;11.90;;;3.85;;
68825;SDS011;55841;53.392;10.086;2023-03-01T16:38:11;10.38;;;3.60;;
68825;SDS011;55841;53.392;10.086;2023-03-01T16:40:37;12.18;;;4.43;;
68825;SDS011;55841;53.392;10.086;2023-03-01T16:43:02;11.63;;;3.92;;